KSLC/SLC METAR and TAF weather

Enter ICAO airport designator
Station Type Date Time Source
KSLC METAR 2021/09/23 23:54 UTC NOAA

KSLC 232354Z 33012KT 10SM FEW150 SCT240 24/01 A3011 RMK AO2 SLP156 FU ALFT T02440011 10261 20211 53000


Station Type Date Time Source
KSLC Decoded METAR 2021/09/23 23:54 UTC NOAA

SALT LAKE CITY INTERNATIONAL AIRPORT , UT, United States (KSLC) 40-47N 111-58W 1286M
Sep 23, 2021 - 07:54 PM EDT / 2021.09.23 2354 UTC
Wind: from the NNW (330 degrees) at 14 MPH (12 KT):0
Visibility: 10 mile(s):0
Sky conditions: partly cloudy
Temperature: 75.9 F (24.4 C)
Dew Point: 34.0 F (1.1 C)
Relative Humidity: 21%
Pressure (altimeter): 30.11 in. Hg (1019 hPa)
Pressure tendency: 0.00 inches (0.0 hPa) higher than three hours ago
ob: KSLC 232354Z 33012KT 10SM FEW150 SCT240 24/01 A3011 RMK AO2 SLP156 FU ALFT T02440011 10261 20211 53000
cycle: 0

Station Type Date Time Source
KSLC TAF 2021/09/23 18:22 UTC NOAA

TAF KSLC 231720Z 2318/2424 34008KT P6SM FEW120 BKN200
FM232000 34010G20KT P6SM SCT100 SCT200
FM240100 33008KT P6SM FEW200
FM240400 15004KT P6SM SKC
FM241800 32009KT P6SM SKC

Example: see airport list